sensor_id;sensor_type;location;lat;lon;timestamp;P1;durP1;ratioP1;P2;durP2;ratioP2
62151;SDS011;48139;47.474;19.034;2022-11-15T04:41:42;25.55;;;14.77;;
62151;SDS011;48139;47.474;19.034;2022-11-15T04:45:04;27.15;;;14.25;;
62151;SDS011;48139;47.474;19.034;2022-11-15T04:48:26;22.80;;;13.38;;
62151;SDS011;48139;47.474;19.034;2022-11-15T04:51:47;24.67;;;16.10;;
62151;SDS011;48139;47.474;19.034;2022-11-15T04:55:09;24.05;;;12.45;;
62151;SDS011;48139;47.474;19.034;2022-11-15T04:58:31;26.45;;;16.30;;
62151;SDS011;48139;47.474;19.034;2022-11-15T05:01:52;21.20;;;12.13;;
62151;SDS011;48139;47.474;19.034;2022-11-15T05:05:13;20.50;;;13.30;;
62151;SDS011;48139;47.474;19.034;2022-11-15T05:08:34;20.92;;;12.80;;
62151;SDS011;48139;47.474;19.034;2022-11-15T05:11:55;19.02;;;11.60;;
62151;SDS011;48139;47.474;19.034;2022-11-15T05:15:16;21.73;;;15.15;;
62151;SDS011;48139;47.474;19.034;2022-11-15T05:18:37;22.83;;;12.70;;
62151;SDS011;48139;47.474;19.034;2022-11-15T05:22:01;19.47;;;12.40;;
62151;SDS011;48139;47.474;19.034;2022-11-15T05:25:22;27.37;;;14.45;;
62151;SDS011;48139;47.474;19.034;2022-11-15T05:28:43;23.83;;;13.05;;
62151;SDS011;48139;47.474;19.034;2022-11-15T05:32:05;23.50;;;13.05;;
62151;SDS011;48139;47.474;19.034;2022-11-15T05:35:30;22.65;;;13.05;;
62151;SDS011;48139;47.474;19.034;2022-11-15T05:38:54;25.62;;;15.02;;
62151;SDS011;48139;47.474;19.034;2022-11-15T05:42:16;24.35;;;15.20;;
62151;SDS011;48139;47.474;19.034;2022-11-15T05:45:37;22.62;;;14.38;;
62151;SDS011;48139;47.474;19.034;2022-11-15T05:48:58;22.10;;;13.93;;
62151;SDS011;48139;47.474;19.034;2022-11-15T05:52:20;22.70;;;13.10;;
62151;SDS011;48139;47.474;19.034;2022-11-15T05:55:45;24.85;;;14.27;;
62151;SDS011;48139;47.474;19.034;2022-11-15T05:59:07;22.98;;;14.32;;
62151;SDS011;48139;47.474;19.034;2022-11-15T06:02:30;23.30;;;15.38;;
62151;SDS011;48139;47.474;19.034;2022-11-15T06:05:51;23.65;;;14.35;;
62151;SDS011;48139;47.474;19.034;2022-11-15T06:09:12;25.90;;;16.40;;
62151;SDS011;48139;47.474;19.034;2022-11-15T06:12:33;23.08;;;15.15;;
62151;SDS011;48139;47.474;19.034;2022-11-15T06:15:55;26.12;;;16.10;;
62151;SDS011;48139;47.474;19.034;2022-11-15T06:19:16;20.67;;;15.40;;
62151;SDS011;48139;47.474;19.034;2022-11-15T06:22:38;25.60;;;16.65;;
62151;SDS011;48139;47.474;19.034;2022-11-15T06:25:59;24.95;;;15.95;;
62151;SDS011;48139;47.474;19.034;2022-11-15T06:29:21;29.23;;;17.45;;
62151;SDS011;48139;47.474;19.034;2022-11-15T06:32:42;29.25;;;18.90;;
62151;SDS011;48139;47.474;19.034;2022-11-15T06:36:03;23.08;;;15.55;;
62151;SDS011;48139;47.474;19.034;2022-11-15T06:39:26;26.00;;;15.85;;
62151;SDS011;48139;47.474;19.034;2022-11-15T06:42:47;25.23;;;15.48;;
62151;SDS011;48139;47.474;19.034;2022-11-15T06:46:07;28.50;;;17.48;;
62151;SDS011;48139;47.474;19.034;2022-11-15T06:49:28;28.30;;;16.70;;
62151;SDS011;48139;47.474;19.034;2022-11-15T06:52:50;29.27;;;17.23;;
62151;SDS011;48139;47.474;19.034;2022-11-15T06:56:11;27.00;;;17.33;;
62151;SDS011;48139;47.474;19.034;2022-11-15T06:59:32;29.00;;;15.73;;
62151;SDS011;48139;47.474;19.034;2022-11-15T07:03:00;29.67;;;17.87;;
62151;SDS011;48139;47.474;19.034;2022-11-15T07:06:22;28.70;;;18.52;;
62151;SDS011;48139;47.474;19.034;2022-11-15T07:09:43;25.85;;;17.75;;
62151;SDS011;48139;47.474;19.034;2022-11-15T07:13:04;27.35;;;18.05;;
62151;SDS011;48139;47.474;19.034;2022-11-15T07:16:25;26.98;;;17.52;;
62151;SDS011;48139;47.474;19.034;2022-11-15T07:19:46;32.03;;;19.37;;
62151;SDS011;48139;47.474;19.034;2022-11-15T07:23:07;32.53;;;18.98;;
62151;SDS011;48139;47.474;19.034;2022-11-15T07:26:28;26.70;;;16.73;;
62151;SDS011;48139;47.474;19.034;2022-11-15T07:29:49;31.35;;;18.02;;
62151;SDS011;48139;47.474;19.034;2022-11-15T07:33:10;29.55;;;18.27;;
62151;SDS011;48139;47.474;19.034;2022-11-15T07:36:30;33.35;;;19.00;;
62151;SDS011;48139;47.474;19.034;2022-11-15T07:39:52;26.45;;;17.92;;
62151;SDS011;48139;47.474;19.034;2022-11-15T07:43:13;27.42;;;17.75;;
62151;SDS011;48139;47.474;19.034;2022-11-15T07:46:33;33.28;;;19.60;;
62151;SDS011;48139;47.474;19.034;2022-11-15T07:49:54;29.05;;;18.77;;
62151;SDS011;48139;47.474;19.034;2022-11-15T07:53:16;26.58;;;17.67;;
62151;SDS011;48139;47.474;19.034;2022-11-15T07:56:44;27.50;;;17.83;;
62151;SDS011;48139;47.474;19.034;2022-11-15T08:00:05;28.90;;;17.05;;
62151;SDS011;48139;47.474;19.034;2022-11-15T08:03:29;32.88;;;20.52;;
62151;SDS011;48139;47.474;19.034;2022-11-15T08:06:51;31.10;;;20.10;;
62151;SDS011;48139;47.474;19.034;2022-11-15T08:10:13;29.52;;;18.52;;
62151;SDS011;48139;47.474;19.034;2022-11-15T08:13:37;30.23;;;20.58;;
62151;SDS011;48139;47.474;19.034;2022-11-15T08:16:58;30.37;;;19.60;;
62151;SDS011;48139;47.474;19.034;2022-11-15T08:20:22;30.85;;;19.60;;
62151;SDS011;48139;47.474;19.034;2022-11-15T08:23:43;30.45;;;19.45;;
62151;SDS011;48139;47.474;19.034;2022-11-15T08:27:04;31.35;;;20.15;;
62151;SDS011;48139;47.474;19.034;2022-11-15T08:30:26;32.13;;;19.48;;
62151;SDS011;48139;47.474;19.034;2022-11-15T08:33:47;31.05;;;19.37;;
62151;SDS011;48139;47.474;19.034;2022-11-15T08:37:11;34.88;;;20.08;;
62151;SDS011;48139;47.474;19.034;2022-11-15T08:40:32;30.88;;;20.83;;
62151;SDS011;48139;47.474;19.034;2022-11-15T08:43:53;31.17;;;20.40;;
62151;SDS011;48139;47.474;19.034;2022-11-15T08:47:14;33.03;;;21.83;;
62151;SDS011;48139;47.474;19.034;2022-11-15T08:50:35;33.25;;;19.83;;
62151;SDS011;48139;47.474;19.034;2022-11-15T08:53:57;34.35;;;20.90;;
62151;SDS011;48139;47.474;19.034;2022-11-15T08:57:18;31.58;;;18.95;;
62151;SDS011;48139;47.474;19.034;2022-11-15T09:00:39;32.40;;;22.65;;
62151;SDS011;48139;47.474;19.034;2022-11-15T09:03:59;35.08;;;20.85;;
62151;SDS011;48139;47.474;19.034;2022-11-15T09:07:20;27.05;;;19.15;;
62151;SDS011;48139;47.474;19.034;2022-11-15T09:10:41;39.60;;;21.15;;
62151;SDS011;48139;47.474;19.034;2022-11-15T09:14:02;34.42;;;22.33;;
62151;SDS011;48139;47.474;19.034;2022-11-15T09:17:23;29.05;;;19.02;;
62151;SDS011;48139;47.474;19.034;2022-11-15T09:20:46;32.08;;;20.95;;
62151;SDS011;48139;47.474;19.034;2022-11-15T09:24:07;35.60;;;22.48;;
62151;SDS011;48139;47.474;19.034;2022-11-15T09:27:29;32.58;;;20.10;;
62151;SDS011;48139;47.474;19.034;2022-11-15T09:30:51;32.42;;;20.55;;
62151;SDS011;48139;47.474;19.034;2022-11-15T09:34:11;31.58;;;20.20;;
62151;SDS011;48139;47.474;19.034;2022-11-15T09:37:32;26.50;;;19.08;;
62151;SDS011;48139;47.474;19.034;2022-11-15T09:40:57;29.37;;;18.33;;
62151;SDS011;48139;47.474;19.034;2022-11-15T09:51:51;31.05;;;21.00;;
62151;SDS011;48139;47.474;19.034;2022-11-15T09:54:55;31.83;;;20.17;;
62151;SDS011;48139;47.474;19.034;2022-11-15T09:58:03;32.73;;;19.33;;
62151;SDS011;48139;47.474;19.034;2022-11-15T10:01:16;31.67;;;18.12;;
62151;SDS011;48139;47.474;19.034;2022-11-15T10:04:28;33.20;;;21.12;;
62151;SDS011;48139;47.474;19.034;2022-11-15T10:07:46;34.55;;;24.55;;
62151;SDS011;48139;47.474;19.034;2022-11-15T10:10:57;37.25;;;24.15;;
62151;SDS011;48139;47.474;19.034;2022-11-15T10:14:23;40.35;;;23.50;;
62151;SDS011;48139;47.474;19.034;2022-11-15T10:20:34;37.42;;;24.30;;
62151;SDS011;48139;47.474;19.034;2022-11-15T10:23:53;30.85;;;20.08;;
62151;SDS011;48139;47.474;19.034;2022-11-15T10:26:56;36.03;;;24.17;;
62151;SDS011;48139;47.474;19.034;2022-11-15T10:29:59;35.55;;;23.95;;
62151;SDS011;48139;47.474;19.034;2022-11-15T10:39:27;36.35;;;20.33;;
62151;SDS011;48139;47.474;19.034;2022-11-15T10:42:30;63.92;;;26.05;;
62151;SDS011;48139;47.474;19.034;2022-11-15T10:45:33;37.13;;;22.40;;
62151;SDS011;48139;47.474;19.034;2022-11-15T10:48:36;42.25;;;23.30;;
62151;SDS011;48139;47.474;19.034;2022-11-15T10:58:41;36.42;;;23.05;;
62151;SDS011;48139;47.474;19.034;2022-11-15T11:01:45;32.00;;;22.70;;
62151;SDS011;48139;47.474;19.034;2022-11-15T11:04:49;36.95;;;22.90;;
62151;SDS011;48139;47.474;19.034;2022-11-15T11:07:57;34.22;;;23.62;;
62151;SDS011;48139;47.474;19.034;2022-11-15T11:11:03;38.00;;;24.23;;
62151;SDS011;48139;47.474;19.034;2022-11-15T11:14:15;38.13;;;23.02;;
62151;SDS011;48139;47.474;19.034;2022-11-15T11:20:45;35.28;;;22.35;;
62151;SDS011;48139;47.474;19.034;2022-11-15T11:23:59;35.08;;;21.73;;
62151;SDS011;48139;47.474;19.034;2022-11-15T11:27:22;30.73;;;20.80;;
62151;SDS011;48139;47.474;19.034;2022-11-15T11:30:43;34.58;;;21.65;;
62151;SDS011;48139;47.474;19.034;2022-11-15T11:34:19;36.03;;;20.90;;
62151;SDS011;48139;47.474;19.034;2022-11-15T11:50:39;38.33;;;21.62;;
62151;SDS011;48139;47.474;19.034;2022-11-15T11:57:15;33.28;;;21.87;;
62151;SDS011;48139;47.474;19.034;2022-11-15T12:00:31;29.83;;;21.60;;
62151;SDS011;48139;47.474;19.034;2022-11-15T12:06:58;37.40;;;23.70;;
62151;SDS011;48139;47.474;19.034;2022-11-15T12:10:26;34.30;;;22.85;;
62151;SDS011;48139;47.474;19.034;2022-11-15T12:13:33;36.47;;;22.20;;
62151;SDS011;48139;47.474;19.034;2022-11-15T12:16:41;40.72;;;24.10;;
62151;SDS011;48139;47.474;19.034;2022-11-15T12:19:44;33.45;;;21.95;;
62151;SDS011;48139;47.474;19.034;2022-11-15T12:22:56;35.20;;;23.35;;
62151;SDS011;48139;47.474;19.034;2022-11-15T12:26:22;38.75;;;23.20;;
62151;SDS011;48139;47.474;19.034;2022-11-15T12:29:31;39.28;;;23.95;;
62151;SDS011;48139;47.474;19.034;2022-11-15T12:32:39;42.03;;;24.48;;
62151;SDS011;48139;47.474;19.034;2022-11-15T12:35:57;40.20;;;23.65;;
62151;SDS011;48139;47.474;19.034;2022-11-15T12:39:05;40.65;;;25.27;;
62151;SDS011;48139;47.474;19.034;2022-11-15T12:45:24;43.97;;;26.58;;
62151;SDS011;48139;47.474;19.034;2022-11-15T12:54:50;43.70;;;27.17;;
62151;SDS011;48139;47.474;19.034;2022-11-15T12:57:54;48.53;;;29.77;;
62151;SDS011;48139;47.474;19.034;2022-11-15T13:00:58;45.72;;;28.77;;
62151;SDS011;48139;47.474;19.034;2022-11-15T13:10:42;44.38;;;28.15;;
62151;SDS011;48139;47.474;19.034;2022-11-15T13:13:44;45.85;;;27.52;;
62151;SDS011;48139;47.474;19.034;2022-11-15T13:16:47;47.75;;;26.08;;
62151;SDS011;48139;47.474;19.034;2022-11-15T13:20:00;42.85;;;27.35;;
62151;SDS011;48139;47.474;19.034;2022-11-15T13:23:14;39.25;;;23.67;;
62151;SDS011;48139;47.474;19.034;2022-11-15T13:26:18;40.83;;;24.83;;
62151;SDS011;48139;47.474;19.034;2022-11-15T13:29:22;40.40;;;24.63;;
62151;SDS011;48139;47.474;19.034;2022-11-15T13:32:25;40.10;;;24.07;;
62151;SDS011;48139;47.474;19.034;2022-11-15T13:35:28;39.17;;;23.90;;
62151;SDS011;48139;47.474;19.034;2022-11-15T13:38:34;39.10;;;24.15;;
62151;SDS011;48139;47.474;19.034;2022-11-15T13:41:45;37.95;;;23.05;;
62151;SDS011;48139;47.474;19.034;2022-11-15T13:44:55;41.50;;;24.52;;
62151;SDS011;48139;47.474;19.034;2022-11-15T13:47:57;42.58;;;24.12;;
62151;SDS011;48139;47.474;19.034;2022-11-15T13:51:01;46.45;;;26.48;;
62151;SDS011;48139;47.474;19.034;2022-11-15T13:57:27;36.50;;;23.95;;
62151;SDS011;48139;47.474;19.034;2022-11-15T14:00:39;33.45;;;22.33;;
62151;SDS011;48139;47.474;19.034;2022-11-15T14:03:53;34.65;;;21.02;;
62151;SDS011;48139;47.474;19.034;2022-11-15T14:06:59;36.83;;;22.23;;
62151;SDS011;48139;47.474;19.034;2022-11-15T14:13:32;38.65;;;21.58;;
62151;SDS011;48139;47.474;19.034;2022-11-15T14:16:40;36.58;;;21.48;;
62151;SDS011;48139;47.474;19.034;2022-11-15T14:19:42;38.28;;;23.10;;
62151;SDS011;48139;47.474;19.034;2022-11-15T14:22:52;33.90;;;19.77;;
62151;SDS011;48139;47.474;19.034;2022-11-15T14:25:58;35.25;;;17.85;;
62151;SDS011;48139;47.474;19.034;2022-11-15T14:32:24;36.25;;;21.60;;
62151;SDS011;48139;47.474;19.034;2022-11-15T14:35:28;33.75;;;21.70;;
62151;SDS011;48139;47.474;19.034;2022-11-15T14:38:31;32.35;;;18.65;;
62151;SDS011;48139;47.474;19.034;2022-11-15T14:41:35;33.60;;;20.35;;
62151;SDS011;48139;47.474;19.034;2022-11-15T14:44:42;34.15;;;20.10;;
62151;SDS011;48139;47.474;19.034;2022-11-15T14:47:47;37.60;;;22.48;;
62151;SDS011;48139;47.474;19.034;2022-11-15T14:50:52;32.67;;;19.73;;
62151;SDS011;48139;47.474;19.034;2022-11-15T14:53:55;37.03;;;21.73;;
62151;SDS011;48139;47.474;19.034;2022-11-15T14:56:57;36.90;;;22.85;;
62151;SDS011;48139;47.474;19.034;2022-11-15T15:00:00;37.58;;;23.80;;
62151;SDS011;48139;47.474;19.034;2022-11-15T15:03:13;43.42;;;23.67;;
62151;SDS011;48139;47.474;19.034;2022-11-15T15:06:15;37.83;;;24.23;;
62151;SDS011;48139;47.474;19.034;2022-11-15T15:09:19;41.30;;;24.33;;
62151;SDS011;48139;47.474;19.034;2022-11-15T15:12:22;37.78;;;21.60;;
62151;SDS011;48139;47.474;19.034;2022-11-15T15:15:26;41.05;;;22.95;;
62151;SDS011;48139;47.474;19.034;2022-11-15T15:18:35;40.17;;;23.27;;
62151;SDS011;48139;47.474;19.034;2022-11-15T15:21:38;39.72;;;24.10;;
62151;SDS011;48139;47.474;19.034;2022-11-15T15:24:41;37.67;;;23.17;;
62151;SDS011;48139;47.474;19.034;2022-11-15T15:27:44;42.58;;;23.87;;
62151;SDS011;48139;47.474;19.034;2022-11-15T15:30:49;35.95;;;20.23;;
62151;SDS011;48139;47.474;19.034;2022-11-15T15:33:51;38.30;;;21.95;;
62151;SDS011;48139;47.474;19.034;2022-11-15T15:40:29;38.72;;;24.00;;
62151;SDS011;48139;47.474;19.034;2022-11-15T15:43:33;39.00;;;21.83;;
62151;SDS011;48139;47.474;19.034;2022-11-15T15:46:35;33.92;;;20.80;;
62151;SDS011;48139;47.474;19.034;2022-11-15T15:49:38;41.33;;;22.33;;
62151;SDS011;48139;47.474;19.034;2022-11-15T15:52:40;37.53;;;21.92;;
62151;SDS011;48139;47.474;19.034;2022-11-15T15:55:42;39.10;;;23.25;;
62151;SDS011;48139;47.474;19.034;2022-11-15T15:58:45;33.40;;;23.02;;
62151;SDS011;48139;47.474;19.034;2022-11-15T16:01:47;42.97;;;22.03;;
62151;SDS011;48139;47.474;19.034;2022-11-15T16:04:52;33.20;;;21.25;;
62151;SDS011;48139;47.474;19.034;2022-11-15T16:07:54;38.63;;;20.90;;
62151;SDS011;48139;47.474;19.034;2022-11-15T16:14:00;40.42;;;26.15;;
62151;SDS011;48139;47.474;19.034;2022-11-15T16:17:03;36.88;;;22.65;;
62151;SDS011;48139;47.474;19.034;2022-11-15T16:20:06;44.83;;;26.15;;
62151;SDS011;48139;47.474;19.034;2022-11-15T16:23:10;45.00;;;24.80;;
62151;SDS011;48139;47.474;19.034;2022-11-15T16:26:27;37.35;;;22.05;;
62151;SDS011;48139;47.474;19.034;2022-11-15T16:29:31;43.75;;;24.83;;
62151;SDS011;48139;47.474;19.034;2022-11-15T16:32:33;46.03;;;24.37;;
62151;SDS011;48139;47.474;19.034;2022-11-15T16:35:36;44.05;;;26.45;;
62151;SDS011;48139;47.474;19.034;2022-11-15T16:38:38;42.83;;;26.85;;
62151;SDS011;48139;47.474;19.034;2022-11-15T16:41:41;46.92;;;27.05;;
62151;SDS011;48139;47.474;19.034;2022-11-15T16:44:48;41.28;;;25.25;;
62151;SDS011;48139;47.474;19.034;2022-11-15T16:47:51;47.90;;;25.73;;
62151;SDS011;48139;47.474;19.034;2022-11-15T16:50:57;47.40;;;26.05;;
62151;SDS011;48139;47.474;19.034;2022-11-15T16:54:00;46.47;;;25.73;;
62151;SDS011;48139;47.474;19.034;2022-11-15T16:57:02;44.80;;;27.27;;
